createdAt,value
2023-01-04T00:01:55.355Z,-4.40
2023-01-04T00:04:24.122Z,-4.40
2023-01-04T00:06:51.015Z,-4.30
2023-01-04T00:09:17.904Z,-4.40
2023-01-04T00:11:44.700Z,-4.40
2023-01-04T00:14:12.087Z,-4.40
2023-01-04T00:16:38.922Z,-4.40
2023-01-04T00:19:05.744Z,-4.40
2023-01-04T00:21:32.562Z,-4.40
2023-01-04T00:24:00.731Z,-4.40
2023-01-04T00:26:28.889Z,-4.30
2023-01-04T00:28:59.482Z,-4.40
2023-01-04T00:31:26.438Z,-4.30
2023-01-04T00:33:54.394Z,-4.20
2023-01-04T00:36:21.335Z,-4.10
2023-01-04T00:38:48.246Z,-4.10
2023-01-04T00:41:42.012Z,-4.10
2023-01-04T00:44:03.556Z,-4.00
2023-01-04T00:46:31.523Z,-4.00
2023-01-04T00:49:00.805Z,-4.10
2023-01-04T00:51:29.020Z,-4.00
2023-01-04T00:53:55.898Z,-4.00
2023-01-04T00:56:22.711Z,-4.10
2023-01-04T00:58:49.511Z,-4.00
2023-01-04T01:01:16.343Z,-4.10
2023-01-04T01:03:44.778Z,-4.00
2023-01-04T01:06:12.576Z,-3.90
2023-01-04T01:08:39.441Z,-4.00
2023-01-04T01:11:08.018Z,-4.10
2023-01-04T01:13:35.531Z,-4.10
2023-01-04T01:16:06.828Z,-4.10
2023-01-04T01:18:34.441Z,-4.10
2023-01-04T01:21:04.315Z,-4.10
2023-01-04T01:23:31.220Z,-4.10
2023-01-04T01:26:02.101Z,-4.10
2023-01-04T01:28:29.259Z,-4.00
2023-01-04T01:30:56.432Z,-4.00
2023-01-04T01:33:23.300Z,-4.10
2023-01-04T01:35:50.105Z,-4.10
2023-01-04T01:38:16.994Z,-4.00
2023-01-04T01:40:44.504Z,-4.00
2023-01-04T01:43:21.752Z,-4.10
2023-01-04T01:45:53.623Z,-4.10
2023-01-04T01:48:23.484Z,-4.10
2023-01-04T01:50:55.697Z,-4.20
2023-01-04T01:53:22.941Z,-4.30
2023-01-04T01:55:50.677Z,-4.30
2023-01-04T01:58:26.523Z,-4.40
2023-01-04T02:00:53.393Z,-4.30
2023-01-04T02:03:22.447Z,-4.30
2023-01-04T02:05:53.555Z,-4.30
2023-01-04T02:08:22.478Z,-4.40
2023-01-04T02:10:49.693Z,-4.40
2023-01-04T02:13:18.443Z,-4.50
2023-01-04T02:16:11.717Z,-4.50
2023-01-04T02:18:43.369Z,-4.50
2023-01-04T02:21:14.975Z,-4.50
2023-01-04T02:23:54.060Z,-4.60
2023-01-04T02:26:27.002Z,-4.50
2023-01-04T02:29:17.908Z,-4.50
2023-01-04T02:32:04.885Z,-4.50
2023-01-04T02:34:31.685Z,-4.60
2023-01-04T02:37:01.497Z,-4.50
2023-01-04T02:40:00.857Z,-4.60
2023-01-04T02:42:50.108Z,-4.60
2023-01-04T02:45:18.587Z,-4.50
2023-01-04T02:48:04.230Z,-4.50
2023-01-04T02:50:32.858Z,-4.50
2023-01-04T02:53:05.627Z,-4.70
2023-01-04T02:55:40.936Z,-4.70
2023-01-04T02:58:27.981Z,-4.70
2023-01-04T03:01:16.101Z,-4.80
2023-01-04T03:04:16.516Z,-4.70
2023-01-04T03:06:49.948Z,-4.70
2023-01-04T03:09:22.225Z,-4.70
2023-01-04T03:12:14.620Z,-4.70
2023-01-04T03:14:45.530Z,-4.70
2023-01-04T03:17:13.980Z,-4.60
2023-01-04T03:19:56.805Z,-4.60
2023-01-04T03:22:51.607Z,-4.60
2023-01-04T03:25:39.046Z,-4.60
2023-01-04T03:28:25.204Z,-4.50
2023-01-04T03:31:14.266Z,-4.40
2023-01-04T03:33:59.777Z,-4.40
2023-01-04T03:36:35.747Z,-4.40
2023-01-04T03:39:44.249Z,-4.30
2023-01-04T03:42:29.510Z,-4.40
2023-01-04T03:45:18.098Z,-4.60
2023-01-04T03:48:26.435Z,-4.60
2023-01-04T03:50:57.207Z,-4.60
2023-01-04T03:53:24.944Z,-4.60
2023-01-04T03:55:52.821Z,-4.60
2023-01-04T03:58:20.216Z,-4.60
2023-01-04T04:00:47.467Z,-4.50
2023-01-04T04:03:14.377Z,-4.50
2023-01-04T04:06:01.561Z,-4.50
2023-01-04T04:08:31.106Z,-4.50
2023-01-04T04:11:20.467Z,-4.60
2023-01-04T04:13:47.597Z,-4.60
2023-01-04T04:16:14.451Z,-4.60
2023-01-04T04:18:41.336Z,-4.40
2023-01-04T04:21:08.080Z,-4.50
2023-01-04T04:23:34.930Z,-4.60
2023-01-04T04:26:01.756Z,-4.50
2023-01-04T04:28:28.627Z,-4.40
2023-01-04T04:30:55.463Z,-4.50
2023-01-04T04:33:22.283Z,-4.50
2023-01-04T04:35:52.348Z,-4.60
2023-01-04T04:38:19.226Z,-4.60
2023-01-04T04:41:05.133Z,-4.60
2023-01-04T04:43:32.799Z,-4.50
2023-01-04T04:45:59.633Z,-4.50
2023-01-04T04:48:26.491Z,-4.70
2023-01-04T04:50:53.276Z,-4.70
2023-01-04T04:53:20.090Z,-4.70
2023-01-04T04:55:46.960Z,-4.70
2023-01-04T04:58:13.802Z,-4.80
2023-01-04T05:00:41.061Z,-4.70
2023-01-04T05:03:09.189Z,-4.80
2023-01-04T05:05:36.178Z,-4.70
2023-01-04T05:08:02.998Z,-4.60
2023-01-04T05:10:29.786Z,-4.70
2023-01-04T05:13:02.553Z,-4.70
2023-01-04T05:15:32.583Z,-4.70
2023-01-04T05:17:59.630Z,-4.70
2023-01-04T05:20:26.515Z,-4.70
2023-01-04T05:22:53.552Z,-4.70
2023-01-04T05:25:20.356Z,-4.70
2023-01-04T05:27:47.154Z,-4.80
2023-01-04T05:30:33.134Z,-4.80
2023-01-04T05:33:00.369Z,-4.90
2023-01-04T05:35:27.162Z,-4.80
2023-01-04T05:37:54.312Z,-4.80
2023-01-04T05:40:21.528Z,-4.80
2023-01-04T05:42:48.574Z,-4.80
2023-01-04T05:45:16.115Z,-4.80
2023-01-04T05:47:43.140Z,-4.80
2023-01-04T05:50:10.616Z,-4.80
2023-01-04T05:52:37.470Z,-4.70
2023-01-04T05:55:04.410Z,-4.60
2023-01-04T05:57:31.245Z,-4.60
2023-01-04T05:59:58.022Z,-4.70
2023-01-04T06:02:26.118Z,-4.60
2023-01-04T06:04:58.474Z,-4.60
2023-01-04T06:07:26.376Z,-4.60
2023-01-04T06:09:53.203Z,-4.70
2023-01-04T06:12:19.985Z,-4.70
2023-01-04T06:14:46.791Z,-4.70
2023-01-04T06:17:13.789Z,-4.60
2023-01-04T06:19:40.693Z,-4.60
2023-01-04T06:22:08.241Z,-4.60
2023-01-04T06:24:35.360Z,-4.60
2023-01-04T06:27:02.751Z,-4.60
2023-01-04T06:29:29.615Z,-4.60
2023-01-04T06:31:56.527Z,-4.50
2023-01-04T06:34:30.289Z,-4.60
2023-01-04T06:36:57.923Z,-4.60
2023-01-04T06:39:24.735Z,-4.60
2023-01-04T06:41:51.516Z,-4.60
2023-01-04T06:44:18.515Z,-4.60
2023-01-04T06:46:45.311Z,-4.60
2023-01-04T06:49:12.177Z,-4.60
2023-01-04T06:51:38.949Z,-4.60
2023-01-04T06:54:06.032Z,-4.50
2023-01-04T06:56:33.698Z,-4.50
2023-01-04T06:59:00.534Z,-4.50
2023-01-04T07:01:27.569Z,-4.60
2023-01-04T07:03:54.868Z,-4.60
2023-01-04T07:06:21.686Z,-4.60
2023-01-04T07:08:48.511Z,-4.60
2023-01-04T07:11:15.292Z,-4.60
2023-01-04T07:13:42.065Z,-4.60
2023-01-04T07:16:09.000Z,-4.60
2023-01-04T07:18:36.640Z,-4.60
2023-01-04T07:21:03.518Z,-4.60
2023-01-04T07:23:30.273Z,-4.60
2023-01-04T07:26:00.532Z,-4.60
2023-01-04T07:28:47.509Z,-4.60
2023-01-04T07:31:14.372Z,-4.50
2023-01-04T07:33:41.343Z,-4.50
2023-01-04T07:36:08.656Z,-4.50
2023-01-04T07:38:35.538Z,-4.40
2023-01-04T07:41:02.402Z,-4.40
2023-01-04T07:43:29.199Z,-4.40
2023-01-04T07:45:56.198Z,-4.40
2023-01-04T07:48:23.182Z,-4.30
2023-01-04T07:50:50.561Z,-4.30
2023-01-04T07:53:17.436Z,-4.30
2023-01-04T07:55:44.290Z,-4.30
2023-01-04T07:58:11.182Z,-4.30
2023-01-04T08:00:38.110Z,-4.20
2023-01-04T08:03:05.093Z,-4.20
2023-01-04T08:05:32.489Z,-4.20
2023-01-04T08:07:59.734Z,-4.10
2023-01-04T08:10:26.621Z,-4.10
2023-01-04T08:12:53.460Z,-4.10
2023-01-04T08:15:20.512Z,-4.00
2023-01-04T08:17:47.265Z,-4.00
2023-01-04T08:20:14.125Z,-4.00
2023-01-04T08:22:41.017Z,-3.90
2023-01-04T08:25:07.956Z,-3.90
2023-01-04T08:27:34.768Z,-3.90
2023-01-04T08:30:01.542Z,-3.80
2023-01-04T08:32:28.544Z,-3.90
2023-01-04T08:34:55.662Z,-3.90
2023-01-04T08:37:22.499Z,-3.80
2023-01-04T08:39:50.176Z,-3.80
2023-01-04T08:42:28.508Z,-3.70
2023-01-04T08:44:59.767Z,-3.70
2023-01-04T08:47:28.066Z,-3.70
2023-01-04T08:49:55.202Z,-3.60
2023-01-04T08:52:22.094Z,-3.60
2023-01-04T08:54:49.378Z,-3.60
2023-01-04T08:57:16.654Z,-3.60
2023-01-04T08:59:43.439Z,-3.70
2023-01-04T09:02:21.397Z,-3.60
2023-01-04T09:04:48.592Z,-3.60
2023-01-04T09:07:15.566Z,-3.50
2023-01-04T09:09:42.784Z,-3.50
2023-01-04T09:12:09.675Z,-3.40
2023-01-04T09:14:36.544Z,-3.40
2023-01-04T09:17:03.397Z,-3.30
2023-01-04T09:19:30.197Z,-3.20
2023-01-04T09:21:57.034Z,-3.20
2023-01-04T09:24:23.952Z,-3.20
2023-01-04T09:26:50.767Z,-3.20
2023-01-04T09:29:17.761Z,-3.10
2023-01-04T09:31:44.776Z,-3.10
2023-01-04T09:34:14.701Z,-3.00
2023-01-04T09:36:43.336Z,-3.00
2023-01-04T09:39:16.870Z,-2.90
2023-01-04T09:41:53.055Z,-2.90
2023-01-04T09:44:19.872Z,-2.80
2023-01-04T09:47:00.170Z,-2.80
2023-01-04T09:49:45.680Z,-2.70
2023-01-04T09:52:15.660Z,-2.60
2023-01-04T09:54:45.112Z,-2.60
2023-01-04T09:57:32.121Z,-2.50
2023-01-04T10:00:08.141Z,-2.50
2023-01-04T10:02:57.459Z,-2.50
2023-01-04T10:05:26.967Z,-2.50
2023-01-04T10:07:53.786Z,-2.50
2023-01-04T10:10:35.218Z,-2.40
2023-01-04T10:13:20.591Z,-2.40
2023-01-04T10:16:04.495Z,-2.30
2023-01-04T10:21:33.552Z,-2.30
2023-01-04T10:24:04.342Z,-2.30
2023-01-04T10:26:35.056Z,-2.10
2023-01-04T10:29:14.048Z,-2.10
2023-01-04T10:31:44.706Z,-2.00
2023-01-04T10:34:27.089Z,-2.00
2023-01-04T10:36:58.771Z,-1.90
2023-01-04T10:39:32.336Z,-1.90
2023-01-04T10:42:06.848Z,-1.90
2023-01-04T10:44:36.681Z,-1.90
2023-01-04T10:47:20.042Z,-1.90
2023-01-04T10:49:58.274Z,-1.80
2023-01-04T10:52:33.487Z,-1.80
2023-01-04T10:55:12.715Z,-1.70
2023-01-04T10:57:44.927Z,-1.70
2023-01-04T11:00:13.917Z,-1.70
2023-01-04T11:02:45.952Z,-1.60
2023-01-04T11:05:23.964Z,-1.60
2023-01-04T11:07:59.643Z,-1.60
2023-01-04T11:10:35.555Z,-1.60
2023-01-04T11:13:02.739Z,-1.60
2023-01-04T11:15:30.208Z,-1.50
2023-01-04T11:17:57.852Z,-1.50
2023-01-04T11:20:26.999Z,-1.40
2023-01-04T11:23:06.635Z,-1.40
2023-01-04T11:25:40.251Z,-1.40
2023-01-04T11:28:14.030Z,-1.40
2023-01-04T11:30:50.215Z,-1.40
2023-01-04T11:33:21.403Z,-1.30
2023-01-04T11:35:50.460Z,-1.30
2023-01-04T11:38:25.325Z,-1.30
2023-01-04T11:40:59.867Z,-1.20
2023-01-04T11:43:30.996Z,-1.20
2023-01-04T11:46:05.774Z,-1.10
2023-01-04T11:48:32.884Z,-1.10
2023-01-04T11:51:00.213Z,-1.10
2023-01-04T11:53:32.582Z,-1.00
2023-01-04T11:56:15.281Z,-0.90
2023-01-04T11:58:43.035Z,-0.90
2023-01-04T12:01:23.817Z,-0.80
2023-01-04T12:03:51.291Z,-0.80
2023-01-04T12:06:21.083Z,-0.80
2023-01-04T12:08:48.583Z,-0.80
2023-01-04T12:11:36.155Z,-0.70
2023-01-04T12:14:03.879Z,-0.70
2023-01-04T12:16:46.762Z,-0.70
2023-01-04T12:19:17.715Z,-0.70
2023-01-04T12:21:49.612Z,-0.70
2023-01-04T12:24:17.958Z,-0.60
2023-01-04T12:26:45.297Z,-0.60
2023-01-04T12:29:24.401Z,-0.50
2023-01-04T12:32:14.784Z,-0.50
2023-01-04T12:34:43.294Z,-0.40
2023-01-04T12:37:11.524Z,-0.30
2023-01-04T12:39:45.889Z,-0.20
2023-01-04T12:42:17.653Z,-0.20
2023-01-04T12:44:47.303Z,-0.10
2023-01-04T12:47:39.065Z,0.10
2023-01-04T12:50:11.911Z,0.20
2023-01-04T12:55:33.214Z,0.20
2023-01-04T12:58:01.314Z,0.30
2023-01-04T13:00:47.080Z,0.30
2023-01-04T13:03:21.932Z,0.30
2023-01-04T13:06:02.487Z,0.30
2023-01-04T13:08:33.515Z,0.40
2023-01-04T13:11:01.613Z,0.30
2023-01-04T13:13:42.522Z,0.40
2023-01-04T13:16:18.597Z,0.40
2023-01-04T13:18:48.035Z,0.40
2023-01-04T13:21:26.589Z,0.40
2023-01-04T13:23:55.214Z,0.40
2023-01-04T13:26:46.194Z,0.40
2023-01-04T13:29:18.038Z,0.40
2023-01-04T13:31:47.851Z,0.40
2023-01-04T13:34:16.545Z,0.40
2023-01-04T13:36:43.712Z,0.40
2023-01-04T13:39:12.141Z,0.40
2023-01-04T13:41:43.680Z,0.40
2023-01-04T13:44:15.812Z,0.40
2023-01-04T13:46:43.658Z,0.40
2023-01-04T13:49:13.710Z,0.40
2023-01-04T13:51:40.822Z,0.40
2023-01-04T13:54:18.645Z,0.40
2023-01-04T13:59:32.542Z,0.40
2023-01-04T14:01:59.945Z,0.40
2023-01-04T14:04:28.581Z,0.40
2023-01-04T14:06:58.127Z,0.50
2023-01-04T14:09:29.981Z,0.50
2023-01-04T14:12:08.260Z,0.50
2023-01-04T14:14:35.959Z,0.50
2023-01-04T14:17:14.074Z,0.60
2023-01-04T14:19:41.146Z,0.60
2023-01-04T14:22:23.762Z,0.50
2023-01-04T14:25:09.098Z,0.50
2023-01-04T14:27:40.747Z,0.50
2023-01-04T14:30:34.139Z,0.60
2023-01-04T14:33:02.986Z,0.60
2023-01-04T14:35:30.419Z,0.50
2023-01-04T14:38:05.137Z,0.50
2023-01-04T14:40:32.651Z,0.60
2023-01-04T14:42:59.889Z,0.60
2023-01-04T14:45:26.652Z,0.60
2023-01-04T14:47:53.804Z,0.60
2023-01-04T14:50:20.981Z,0.50
2023-01-04T14:52:51.797Z,0.60
2023-01-04T14:55:19.185Z,0.60
2023-01-04T14:57:46.156Z,0.50
2023-01-04T15:00:18.921Z,0.60
2023-01-04T15:02:50.489Z,0.60
2023-01-04T15:05:21.585Z,0.60
2023-01-04T15:07:48.481Z,0.60
2023-01-04T15:10:21.467Z,0.60
2023-01-04T15:12:48.253Z,0.60
2023-01-04T15:15:15.383Z,0.60
2023-01-04T15:17:42.280Z,0.60
2023-01-04T15:20:09.484Z,0.60
2023-01-04T15:22:36.304Z,0.60
2023-01-04T15:25:03.228Z,0.60
2023-01-04T15:27:32.008Z,0.50
2023-01-04T15:30:00.381Z,0.60
2023-01-04T15:32:27.215Z,0.50
2023-01-04T15:34:54.044Z,0.60
2023-01-04T15:37:24.172Z,0.60
2023-01-04T15:39:55.299Z,0.60
2023-01-04T15:42:43.867Z,0.60
2023-01-04T15:45:10.996Z,0.60
2023-01-04T15:47:37.770Z,0.70
2023-01-04T15:50:05.133Z,0.70
2023-01-04T15:52:31.873Z,0.70
2023-01-04T15:54:58.705Z,0.70
2023-01-04T15:57:25.560Z,0.70
2023-01-04T15:59:52.632Z,0.70
2023-01-04T16:02:19.620Z,0.70
2023-01-04T16:04:47.430Z,0.70
2023-01-04T16:07:14.248Z,0.80
2023-01-04T16:09:41.159Z,0.70
2023-01-04T16:12:26.672Z,0.70
2023-01-04T16:14:53.642Z,0.80
2023-01-04T16:17:20.491Z,0.80
2023-01-04T16:19:47.362Z,0.70
2023-01-04T16:22:14.139Z,0.80
2023-01-04T16:27:34.774Z,0.80
2023-01-04T16:30:02.646Z,0.80
2023-01-04T16:32:29.497Z,0.80
2023-01-04T16:34:56.410Z,0.80
2023-01-04T16:37:25.913Z,0.70
2023-01-04T16:40:09.179Z,0.70
2023-01-04T16:42:37.525Z,0.70
2023-01-04T16:45:04.986Z,0.80
2023-01-04T16:47:39.797Z,0.80
2023-01-04T16:50:07.273Z,0.70
2023-01-04T16:52:34.075Z,0.80
2023-01-04T16:55:00.885Z,0.70
2023-01-04T16:57:27.621Z,0.80
2023-01-04T16:59:54.488Z,0.70
2023-01-04T17:02:21.843Z,0.70
2023-01-04T17:04:55.120Z,0.80
2023-01-04T17:07:22.314Z,0.80
2023-01-04T17:09:49.660Z,0.80
2023-01-04T17:12:46.331Z,0.80
2023-01-04T17:17:50.299Z,0.80
2023-01-04T17:20:24.935Z,0.80
2023-01-04T17:22:51.820Z,0.80
2023-01-04T17:25:18.799Z,0.80
2023-01-04T17:27:45.559Z,0.80
2023-01-04T17:30:12.509Z,0.80
2023-01-04T17:32:39.332Z,0.80
2023-01-04T17:35:06.252Z,0.80
2023-01-04T17:37:33.109Z,0.80
2023-01-04T17:39:59.878Z,0.80
2023-01-04T17:42:26.755Z,0.80
2023-01-04T17:44:53.679Z,0.90
2023-01-04T17:47:20.547Z,0.80
2023-01-04T17:49:47.376Z,0.80
2023-01-04T17:52:21.019Z,0.80
2023-01-04T17:54:49.126Z,0.80
2023-01-04T17:57:15.996Z,0.80
2023-01-04T17:59:42.865Z,0.80
2023-01-04T18:02:10.482Z,0.80
2023-01-04T18:04:37.462Z,0.80
2023-01-04T18:07:04.440Z,0.90
2023-01-04T18:09:31.273Z,0.90
2023-01-04T18:11:58.080Z,0.90
2023-01-04T18:14:24.911Z,0.90
2023-01-04T18:16:58.661Z,0.90
2023-01-04T18:19:27.205Z,0.80
2023-01-04T18:21:54.122Z,0.90
2023-01-04T18:24:37.910Z,0.90
2023-01-04T18:27:23.710Z,0.90
2023-01-04T18:29:53.116Z,0.90
2023-01-04T18:32:20.659Z,0.90
2023-01-04T18:34:47.662Z,0.90
2023-01-04T18:37:16.141Z,0.90
2023-01-04T18:39:43.481Z,0.90
2023-01-04T18:42:10.338Z,0.90
2023-01-04T18:44:41.242Z,1.00
2023-01-04T18:47:12.815Z,0.90
2023-01-04T18:49:39.767Z,0.90
2023-01-04T18:52:06.612Z,0.90
2023-01-04T18:54:33.385Z,0.90
2023-01-04T18:57:01.297Z,0.90
2023-01-04T18:59:28.765Z,1.00
2023-01-04T19:02:01.122Z,0.90
2023-01-04T19:04:29.980Z,0.90
2023-01-04T19:06:56.955Z,0.90
2023-01-04T19:09:23.844Z,0.80
2023-01-04T19:11:50.710Z,0.80
2023-01-04T19:14:17.603Z,0.90
2023-01-04T19:16:44.731Z,0.90
2023-01-04T19:19:11.719Z,0.90
2023-01-04T19:21:38.577Z,0.80
2023-01-04T19:24:05.433Z,0.90
2023-01-04T19:26:32.219Z,0.90
2023-01-04T19:28:59.093Z,0.90
2023-01-04T19:31:25.978Z,0.90
2023-01-04T19:33:52.754Z,0.90
2023-01-04T19:36:19.790Z,0.90
2023-01-04T19:38:46.696Z,0.90
2023-01-04T19:41:21.090Z,0.90
2023-01-04T19:43:48.072Z,0.90
2023-01-04T19:46:15.293Z,0.90
2023-01-04T19:48:42.603Z,0.90
2023-01-04T19:51:13.333Z,0.90
2023-01-04T19:53:40.839Z,0.90
2023-01-04T19:56:08.211Z,0.90
2023-01-04T19:58:36.106Z,0.90
2023-01-04T20:01:02.988Z,0.90
2023-01-04T20:03:30.032Z,0.90
2023-01-04T20:06:00.857Z,0.90
2023-01-04T20:08:27.645Z,0.90
2023-01-04T20:10:55.127Z,0.90
2023-01-04T20:13:21.979Z,0.90
2023-01-04T20:15:48.765Z,0.90
2023-01-04T20:18:15.651Z,0.90
2023-01-04T20:20:43.690Z,0.90
2023-01-04T20:23:10.600Z,0.90
2023-01-04T20:25:40.884Z,0.90
2023-01-04T20:28:07.753Z,0.90
2023-01-04T20:30:34.633Z,0.90
2023-01-04T20:33:01.474Z,0.90
2023-01-04T20:35:28.385Z,0.90
2023-01-04T20:37:56.940Z,0.90
2023-01-04T20:40:24.450Z,0.90
2023-01-04T20:43:09.803Z,0.90
2023-01-04T20:45:43.684Z,0.90
2023-01-04T20:48:10.508Z,1.00
2023-01-04T20:50:37.419Z,1.00
2023-01-04T20:53:04.474Z,1.00
2023-01-04T20:55:31.259Z,1.00
2023-01-04T20:57:58.239Z,1.00
2023-01-04T21:00:25.027Z,1.00
2023-01-04T21:02:52.104Z,1.10
2023-01-04T21:05:19.036Z,1.00
2023-01-04T21:07:45.836Z,1.00
2023-01-04T21:10:12.608Z,1.10
2023-01-04T21:12:39.445Z,1.10
2023-01-04T21:15:06.757Z,1.10
2023-01-04T21:17:33.536Z,1.00
2023-01-04T21:20:00.315Z,1.10
2023-01-04T21:22:27.213Z,1.10
2023-01-04T21:24:54.024Z,1.10
2023-01-04T21:27:21.015Z,1.00
2023-01-04T21:29:47.833Z,1.00
2023-01-04T21:32:14.660Z,1.10
2023-01-04T21:34:41.466Z,1.10
2023-01-04T21:37:08.340Z,1.20
2023-01-04T21:39:35.829Z,1.20
2023-01-04T21:42:02.720Z,1.10
2023-01-04T21:44:30.818Z,1.10
2023-01-04T21:46:57.700Z,1.10
2023-01-04T21:49:24.510Z,1.10
2023-01-04T21:51:51.393Z,1.10
2023-01-04T21:54:18.231Z,1.10
2023-01-04T21:56:45.311Z,1.00
2023-01-04T21:59:12.083Z,1.00
2023-01-04T22:01:39.004Z,1.00
2023-01-04T22:04:05.943Z,1.00
2023-01-04T22:06:34.191Z,1.00
2023-01-04T22:09:00.996Z,1.00
2023-01-04T22:11:27.795Z,1.00
2023-01-04T22:13:55.328Z,1.00
2023-01-04T22:16:22.424Z,1.00
2023-01-04T22:18:49.958Z,1.00
2023-01-04T22:21:18.177Z,1.00
2023-01-04T22:23:44.998Z,1.00
2023-01-04T22:26:11.779Z,1.00
2023-01-04T22:28:40.109Z,1.00
2023-01-04T22:31:08.038Z,1.00
2023-01-04T22:33:35.713Z,1.00
2023-01-04T22:36:06.254Z,1.00
2023-01-04T22:38:37.073Z,1.00
2023-01-04T22:41:07.959Z,1.00
2023-01-04T22:43:35.555Z,1.10
2023-01-04T22:46:03.362Z,1.10
2023-01-04T22:48:30.180Z,1.00
2023-01-04T22:50:57.163Z,1.00
2023-01-04T22:53:24.004Z,1.00
2023-01-04T22:58:37.889Z,1.10
2023-01-04T23:01:05.276Z,1.00
2023-01-04T23:03:33.186Z,1.10
2023-01-04T23:06:00.311Z,1.00
2023-01-04T23:08:27.196Z,1.00
2023-01-04T23:10:54.020Z,1.10
2023-01-04T23:13:20.831Z,1.00
2023-01-04T23:15:47.684Z,1.00
2023-01-04T23:18:14.530Z,1.00
2023-01-04T23:20:41.317Z,0.90
2023-01-04T23:23:08.162Z,0.90
2023-01-04T23:25:34.957Z,1.00
2023-01-04T23:28:01.881Z,0.90
2023-01-04T23:30:28.712Z,0.90
2023-01-04T23:32:55.496Z,1.00
2023-01-04T23:35:22.738Z,1.00
2023-01-04T23:37:49.554Z,0.90
2023-01-04T23:40:16.399Z,0.90
2023-01-04T23:42:43.173Z,1.00
2023-01-04T23:45:10.044Z,0.90
2023-01-04T23:47:36.858Z,0.90
2023-01-04T23:50:03.807Z,1.00
2023-01-04T23:52:30.626Z,0.90
2023-01-04T23:54:57.518Z,0.90
2023-01-04T23:57:24.339Z,0.90
2023-01-04T23:59:51.157Z,0.90
